createdAt,value
2023-02-14T00:00:53.776Z,21.21
2023-02-14T00:01:54.376Z,21.21
2023-02-14T00:02:55.040Z,21.12
2023-02-14T00:03:55.643Z,21.18
2023-02-14T00:04:57.117Z,21.15
2023-02-14T00:05:57.713Z,21.17
2023-02-14T00:06:58.307Z,21.09
2023-02-14T00:07:58.909Z,21.05
2023-02-14T00:08:59.509Z,21.07
2023-02-14T00:10:00.131Z,21.11
2023-02-14T00:11:00.940Z,21.09
2023-02-14T00:12:01.366Z,21.09
2023-02-14T00:13:01.971Z,21.09
2023-02-14T00:14:02.568Z,21.03
2023-02-14T00:15:03.165Z,21.02
2023-02-14T00:16:03.840Z,21.07
2023-02-14T00:17:04.441Z,21.07
2023-02-14T00:18:05.038Z,21.03
2023-02-14T00:19:05.677Z,20.96
2023-02-14T00:20:06.323Z,20.96
2023-02-14T00:21:06.922Z,21.03
2023-02-14T00:22:07.521Z,20.96
2023-02-14T00:23:08.112Z,21.00
2023-02-14T00:24:08.710Z,20.90
2023-02-14T00:25:09.299Z,20.92
2023-02-14T00:26:09.889Z,20.92
2023-02-14T00:27:10.537Z,20.93
2023-02-14T00:28:11.134Z,20.87
2023-02-14T00:29:11.722Z,20.87
2023-02-14T00:30:14.027Z,20.88
2023-02-14T00:31:14.855Z,20.87
2023-02-14T00:32:16.315Z,20.87
2023-02-14T00:33:17.761Z,20.84
2023-02-14T00:34:18.372Z,20.88
2023-02-14T00:35:19.018Z,20.87
2023-02-14T00:36:19.653Z,20.84
2023-02-14T00:37:20.250Z,20.81
2023-02-14T00:38:20.837Z,20.77
2023-02-14T00:39:21.437Z,20.80
2023-02-14T00:40:22.091Z,20.78
2023-02-14T00:41:22.681Z,20.82
2023-02-14T00:42:23.282Z,20.75
2023-02-14T00:43:23.882Z,20.78
2023-02-14T00:44:24.471Z,20.77
2023-02-14T00:45:25.110Z,20.84
2023-02-14T00:46:25.723Z,20.72
2023-02-14T00:47:26.316Z,20.74
2023-02-14T00:48:26.910Z,20.74
2023-02-14T00:49:27.506Z,20.65
2023-02-14T00:50:28.159Z,20.74
2023-02-14T00:51:28.812Z,20.63
2023-02-14T00:52:29.414Z,20.62
2023-02-14T00:53:30.030Z,20.62
2023-02-14T00:54:30.618Z,20.66
2023-02-14T00:55:31.227Z,20.66
2023-02-14T00:56:31.882Z,20.65
2023-02-14T00:57:32.478Z,20.66
2023-02-14T00:58:33.066Z,20.66
2023-02-14T00:59:33.668Z,20.67
2023-02-14T01:00:34.282Z,20.62
2023-02-14T01:01:34.875Z,20.58
2023-02-14T01:02:35.509Z,20.65
2023-02-14T01:03:36.125Z,20.65
2023-02-14T01:04:36.726Z,20.59
2023-02-14T01:05:37.319Z,20.65
2023-02-14T01:06:37.923Z,20.59
2023-02-14T01:07:38.522Z,20.59
2023-02-14T01:08:39.108Z,20.65
2023-02-14T01:09:39.700Z,20.51
2023-02-14T01:10:40.292Z,20.51
2023-02-14T01:11:40.883Z,20.52
2023-02-14T01:12:41.488Z,20.59
2023-02-14T01:13:42.087Z,20.47
2023-02-14T01:14:42.679Z,20.44
2023-02-14T01:15:43.281Z,20.51
2023-02-14T01:16:43.924Z,20.50
2023-02-14T01:17:44.535Z,20.50
2023-02-14T01:18:45.129Z,20.48
2023-02-14T01:19:45.783Z,20.41
2023-02-14T01:20:46.374Z,20.43
2023-02-14T01:21:46.976Z,20.43
2023-02-14T01:22:47.575Z,20.44
2023-02-14T01:23:48.234Z,20.39
2023-02-14T01:24:48.822Z,20.48
2023-02-14T01:25:49.424Z,20.47
2023-02-14T01:26:50.028Z,20.39
2023-02-14T01:27:50.615Z,20.37
2023-02-14T01:28:51.224Z,20.29
2023-02-14T01:29:51.878Z,20.37
2023-02-14T01:30:52.481Z,20.32
2023-02-14T01:31:53.142Z,20.39
2023-02-14T01:32:53.715Z,20.32
2023-02-14T01:33:54.324Z,20.41
2023-02-14T01:34:55.068Z,20.37
2023-02-14T01:35:55.659Z,20.32
2023-02-14T01:36:56.257Z,20.34
2023-02-14T01:37:56.898Z,20.28
2023-02-14T01:38:57.551Z,20.28
2023-02-14T01:39:58.195Z,20.25
2023-02-14T01:40:59.105Z,20.31
2023-02-14T01:41:59.971Z,20.37
2023-02-14T01:43:00.643Z,20.31
2023-02-14T01:44:01.221Z,20.34
2023-02-14T01:45:01.985Z,20.36
2023-02-14T01:46:02.676Z,20.29
2023-02-14T01:47:03.243Z,20.37
2023-02-14T01:48:03.903Z,20.29
2023-02-14T01:49:04.525Z,20.29
2023-02-14T01:50:05.962Z,20.28
2023-02-14T01:51:06.551Z,20.31
2023-02-14T01:52:07.140Z,20.24
2023-02-14T01:53:07.739Z,20.19
2023-02-14T01:54:08.342Z,20.18
2023-02-14T01:55:08.936Z,20.18
2023-02-14T01:56:09.535Z,20.24
2023-02-14T01:57:10.147Z,20.25
2023-02-14T01:58:10.754Z,20.13
2023-02-14T01:59:11.357Z,20.16
2023-02-14T02:00:11.953Z,20.19
2023-02-14T02:01:12.570Z,20.14
2023-02-14T02:02:13.210Z,20.16
2023-02-14T02:03:13.826Z,20.19
2023-02-14T02:04:14.414Z,20.16
2023-02-14T02:05:15.006Z,20.18
2023-02-14T02:06:15.608Z,20.14
2023-02-14T02:07:16.199Z,20.19
2023-02-14T02:08:16.793Z,20.19
2023-02-14T02:09:18.200Z,20.07
2023-02-14T02:10:19.598Z,20.13
2023-02-14T02:11:20.188Z,20.16
2023-02-14T02:12:20.797Z,20.06
2023-02-14T02:13:21.392Z,20.02
2023-02-14T02:14:22.092Z,20.03
2023-02-14T02:15:22.654Z,20.11
2023-02-14T02:16:23.380Z,20.16
2023-02-14T02:17:23.989Z,20.09
2023-02-14T02:18:24.621Z,20.14
2023-02-14T02:19:25.231Z,20.03
2023-02-14T02:20:25.835Z,20.03
2023-02-14T02:21:26.428Z,20.13
2023-02-14T02:22:27.017Z,20.02
2023-02-14T02:23:27.619Z,20.06
2023-02-14T02:24:28.213Z,20.06
2023-02-14T02:25:28.810Z,20.11
2023-02-14T02:26:29.415Z,20.03
2023-02-14T02:27:30.028Z,20.09
2023-02-14T02:28:30.622Z,19.96
2023-02-14T02:29:31.216Z,20.00
2023-02-14T02:30:32.005Z,20.02
2023-02-14T02:31:32.817Z,20.04
2023-02-14T02:32:33.353Z,20.06
2023-02-14T02:33:33.958Z,20.06
2023-02-14T02:34:34.580Z,20.06
2023-02-14T02:35:35.161Z,20.07
2023-02-14T02:36:35.754Z,20.04
2023-02-14T02:37:36.351Z,20.09
2023-02-14T02:38:36.954Z,20.00
2023-02-14T02:39:37.559Z,20.00
2023-02-14T02:40:38.165Z,19.95
2023-02-14T02:41:38.819Z,20.10
2023-02-14T02:42:39.491Z,20.07
2023-02-14T02:43:40.950Z,20.04
2023-02-14T02:44:41.558Z,20.02
2023-02-14T02:45:42.263Z,20.03
2023-02-14T02:46:42.865Z,19.94
2023-02-14T02:47:43.508Z,19.96
2023-02-14T02:48:44.153Z,20.00
2023-02-14T02:49:44.749Z,19.94
2023-02-14T02:50:45.367Z,20.02
2023-02-14T02:51:45.954Z,19.96
2023-02-14T02:52:46.556Z,19.94
2023-02-14T02:53:47.159Z,20.02
2023-02-14T02:54:47.762Z,19.91
2023-02-14T02:55:48.357Z,19.91
2023-02-14T02:56:48.968Z,19.91
2023-02-14T02:57:49.646Z,19.94
2023-02-14T02:58:50.235Z,20.00
2023-02-14T02:59:50.830Z,19.96
2023-02-14T03:00:51.426Z,19.94
2023-02-14T03:01:52.101Z,19.92
2023-02-14T03:02:52.754Z,19.92
2023-02-14T03:03:53.348Z,19.99
2023-02-14T03:04:54.092Z,19.91
2023-02-14T03:05:54.724Z,19.95
2023-02-14T03:06:55.329Z,19.94
2023-02-14T03:07:55.922Z,19.88
2023-02-14T03:08:56.536Z,19.86
2023-02-14T03:09:57.129Z,19.82
2023-02-14T03:10:58.322Z,19.91
2023-02-14T03:11:59.056Z,19.89
2023-02-14T03:12:59.656Z,19.92
2023-02-14T03:14:00.254Z,19.89
2023-02-14T03:15:00.845Z,19.94
2023-02-14T03:16:01.634Z,19.89
2023-02-14T03:17:02.259Z,19.92
2023-02-14T03:18:02.891Z,19.89
2023-02-14T03:19:03.507Z,19.89
2023-02-14T03:20:04.096Z,19.84
2023-02-14T03:21:04.700Z,19.91
2023-02-14T03:22:05.297Z,19.86
2023-02-14T03:23:05.893Z,19.89
2023-02-14T03:24:06.502Z,19.89
2023-02-14T03:25:07.097Z,19.88
2023-02-14T03:26:07.704Z,19.82
2023-02-14T03:27:08.306Z,19.89
2023-02-14T03:28:08.905Z,19.84
2023-02-14T03:29:10.300Z,19.89
2023-02-14T03:30:10.965Z,19.88
2023-02-14T03:31:11.680Z,19.85
2023-02-14T03:32:13.220Z,19.88
2023-02-14T03:33:13.851Z,19.88
2023-02-14T03:34:14.448Z,19.85
2023-02-14T03:35:15.044Z,19.85
2023-02-14T03:36:15.652Z,19.84
2023-02-14T03:37:16.251Z,19.81
2023-02-14T03:38:16.847Z,19.81
2023-02-14T03:39:17.444Z,19.76
2023-02-14T03:40:18.055Z,19.79
2023-02-14T03:41:18.723Z,19.77
2023-02-14T03:42:19.316Z,19.81
2023-02-14T03:43:19.920Z,19.82
2023-02-14T03:44:20.514Z,19.84
2023-02-14T03:45:21.189Z,19.76
2023-02-14T03:46:22.065Z,19.79
2023-02-14T03:47:22.761Z,19.84
2023-02-14T03:48:23.366Z,19.76
2023-02-14T03:49:24.017Z,19.77
2023-02-14T03:50:24.623Z,19.77
2023-02-14T03:51:26.061Z,19.77
2023-02-14T03:52:26.714Z,19.74
2023-02-14T03:53:27.313Z,19.73
2023-02-14T03:54:27.904Z,19.82
2023-02-14T03:55:28.517Z,19.84
2023-02-14T03:56:29.106Z,19.73
2023-02-14T03:57:29.776Z,19.73
2023-02-14T03:58:30.368Z,19.74
2023-02-14T03:59:30.971Z,19.74
2023-02-14T04:00:31.600Z,19.70
2023-02-14T04:01:32.285Z,19.76
2023-02-14T04:02:32.893Z,19.79
2023-02-14T04:03:33.543Z,19.71
2023-02-14T04:04:34.145Z,19.79
2023-02-14T04:05:34.738Z,19.73
2023-02-14T04:06:35.335Z,19.67
2023-02-14T04:07:35.940Z,19.73
2023-02-14T04:08:36.544Z,19.70
2023-02-14T04:09:37.147Z,19.67
2023-02-14T04:10:37.742Z,19.74
2023-02-14T04:11:38.349Z,19.77
2023-02-14T04:12:39.020Z,19.70
2023-02-14T04:13:39.616Z,19.76
2023-02-14T04:14:40.261Z,19.76
2023-02-14T04:15:41.715Z,19.70
2023-02-14T04:16:42.308Z,19.70
2023-02-14T04:17:42.911Z,19.73
2023-02-14T04:18:44.310Z,19.74
2023-02-14T04:19:44.913Z,19.67
2023-02-14T04:20:45.508Z,19.73
2023-02-14T04:21:46.099Z,19.71
2023-02-14T04:22:46.701Z,19.73
2023-02-14T04:23:47.344Z,19.71
2023-02-14T04:24:47.948Z,19.70
2023-02-14T04:25:48.541Z,19.67
2023-02-14T04:26:49.135Z,19.64
2023-02-14T04:27:49.738Z,19.74
2023-02-14T04:28:50.340Z,19.74
2023-02-14T04:29:51.007Z,19.66
2023-02-14T04:30:51.641Z,19.70
2023-02-14T04:31:52.394Z,19.66
2023-02-14T04:32:53.047Z,19.73
2023-02-14T04:33:53.654Z,19.63
2023-02-14T04:34:54.264Z,19.74
2023-02-14T04:35:54.861Z,19.66
2023-02-14T04:36:55.450Z,19.66
2023-02-14T04:37:56.046Z,19.66
2023-02-14T04:38:56.647Z,19.70
2023-02-14T04:39:57.258Z,19.69
2023-02-14T04:40:58.225Z,19.63
2023-02-14T04:41:59.058Z,19.63
2023-02-14T04:42:59.668Z,19.59
2023-02-14T04:44:00.262Z,19.66
2023-02-14T04:45:03.798Z,19.67
2023-02-14T04:46:02.456Z,19.69
2023-02-14T04:47:03.056Z,19.66
2023-02-14T04:48:03.815Z,19.67
2023-02-14T04:49:04.409Z,19.63
2023-02-14T04:50:05.130Z,19.67
2023-02-14T04:51:05.721Z,19.63
2023-02-14T04:52:07.172Z,19.63
2023-02-14T04:53:07.802Z,19.52
2023-02-14T04:54:08.408Z,19.64
2023-02-14T04:55:09.070Z,19.56
2023-02-14T04:56:09.726Z,19.66
2023-02-14T04:57:10.375Z,19.63
2023-02-14T04:58:11.191Z,19.62
2023-02-14T04:59:11.787Z,19.66
2023-02-14T05:00:12.390Z,19.59
2023-02-14T05:01:13.039Z,19.64
2023-02-14T05:02:13.699Z,19.62
2023-02-14T05:03:14.310Z,19.59
2023-02-14T05:04:14.954Z,19.55
2023-02-14T05:05:15.553Z,19.52
2023-02-14T05:06:16.143Z,19.58
2023-02-14T05:07:16.740Z,19.62
2023-02-14T05:08:17.344Z,19.55
2023-02-14T05:09:17.936Z,19.64
2023-02-14T05:10:18.539Z,19.55
2023-02-14T05:11:19.136Z,19.59
2023-02-14T05:12:20.532Z,19.59
2023-02-14T05:13:21.135Z,19.64
2023-02-14T05:14:21.739Z,19.55
2023-02-14T05:15:22.352Z,19.54
2023-02-14T05:16:23.107Z,19.66
2023-02-14T05:17:23.593Z,19.59
2023-02-14T05:18:24.190Z,19.59
2023-02-14T05:19:24.783Z,19.51
2023-02-14T05:20:25.378Z,19.55
2023-02-14T05:21:25.988Z,19.56
2023-02-14T05:22:26.602Z,19.56
2023-02-14T05:23:27.209Z,19.49
2023-02-14T05:24:27.866Z,19.55
2023-02-14T05:25:28.472Z,19.51
2023-02-14T05:26:29.069Z,19.44
2023-02-14T05:27:29.670Z,19.44
2023-02-14T05:28:30.276Z,19.51
2023-02-14T05:29:30.877Z,19.54
2023-02-14T05:30:31.620Z,19.45
2023-02-14T05:31:32.399Z,19.44
2023-02-14T05:32:33.060Z,19.51
2023-02-14T05:33:33.670Z,19.48
2023-02-14T05:34:34.259Z,19.49
2023-02-14T05:35:34.910Z,19.41
2023-02-14T05:36:35.632Z,19.41
2023-02-14T05:37:36.236Z,19.51
2023-02-14T05:38:36.916Z,19.45
2023-02-14T05:39:37.521Z,19.41
2023-02-14T05:40:38.114Z,19.44
2023-02-14T05:41:38.710Z,19.40
2023-02-14T05:42:39.308Z,19.51
2023-02-14T05:43:39.916Z,19.44
2023-02-14T05:44:40.514Z,19.44
2023-02-14T05:45:41.193Z,19.48
2023-02-14T05:46:41.804Z,19.41
2023-02-14T05:47:42.409Z,19.49
2023-02-14T05:48:43.011Z,19.48
2023-02-14T05:49:43.600Z,19.49
2023-02-14T05:50:44.999Z,19.49
2023-02-14T05:51:45.713Z,19.44
2023-02-14T05:52:46.321Z,19.47
2023-02-14T05:53:46.919Z,19.51
2023-02-14T05:54:47.515Z,19.44
2023-02-14T05:55:48.117Z,19.47
2023-02-14T05:56:48.713Z,19.45
2023-02-14T05:57:49.381Z,19.54
2023-02-14T05:58:49.961Z,19.40
2023-02-14T05:59:50.566Z,19.48
2023-02-14T06:00:51.201Z,19.49
2023-02-14T06:01:51.982Z,19.44
2023-02-14T06:02:52.468Z,19.39
2023-02-14T06:03:53.070Z,19.41
2023-02-14T06:04:53.667Z,19.48
2023-02-14T06:05:54.269Z,19.40
2023-02-14T06:06:54.883Z,19.49
2023-02-14T06:07:55.483Z,19.41
2023-02-14T06:08:56.082Z,19.45
2023-02-14T06:09:56.686Z,19.39
2023-02-14T06:10:58.339Z,19.48
2023-02-14T06:11:59.126Z,19.47
2023-02-14T06:12:59.722Z,19.41
2023-02-14T06:14:00.342Z,19.49
2023-02-14T06:15:00.932Z,19.44
2023-02-14T06:16:01.528Z,19.41
2023-02-14T06:17:02.274Z,19.44
2023-02-14T06:18:02.934Z,19.41
2023-02-14T06:19:03.558Z,19.37
2023-02-14T06:20:04.143Z,19.44
2023-02-14T06:21:04.745Z,19.48
2023-02-14T06:22:05.349Z,19.37
2023-02-14T06:23:05.957Z,19.45
2023-02-14T06:24:06.552Z,19.40
2023-02-14T06:25:07.148Z,19.41
2023-02-14T06:26:07.749Z,19.40
2023-02-14T06:27:08.358Z,19.41
2023-02-14T06:28:09.032Z,19.36
2023-02-14T06:29:09.632Z,19.37
2023-02-14T06:30:10.357Z,19.39
2023-02-14T06:31:11.154Z,19.37
2023-02-14T06:32:12.021Z,19.36
2023-02-14T06:33:12.676Z,19.36
2023-02-14T06:34:14.832Z,19.37
2023-02-14T06:35:15.016Z,19.39
2023-02-14T06:36:15.610Z,19.40
2023-02-14T06:37:16.213Z,19.33
2023-02-14T06:38:16.818Z,19.31
2023-02-14T06:39:17.423Z,19.39
2023-02-14T06:40:18.068Z,19.33
2023-02-14T06:41:18.718Z,19.39
2023-02-14T06:42:19.307Z,19.37
2023-02-14T06:43:19.910Z,19.33
2023-02-14T06:44:20.506Z,19.37
2023-02-14T06:45:21.102Z,19.34
2023-02-14T06:46:21.740Z,19.39
2023-02-14T06:47:22.370Z,19.40
2023-02-14T06:48:23.030Z,19.39
2023-02-14T06:49:23.633Z,19.37
2023-02-14T06:50:24.233Z,19.36
2023-02-14T06:51:24.828Z,19.27
2023-02-14T06:52:25.436Z,19.24
2023-02-14T06:53:26.035Z,19.30
2023-02-14T06:54:26.640Z,19.37
2023-02-14T06:55:27.243Z,19.36
2023-02-14T06:56:27.845Z,19.31
2023-02-14T06:57:28.446Z,19.33
2023-02-14T06:58:29.052Z,19.26
2023-02-14T06:59:29.644Z,19.30
2023-02-14T07:00:30.238Z,19.34
2023-02-14T07:01:30.862Z,19.34
2023-02-14T07:02:31.501Z,19.29
2023-02-14T07:03:32.125Z,19.31
2023-02-14T07:04:32.731Z,19.27
2023-02-14T07:05:33.324Z,19.31
2023-02-14T07:06:33.929Z,19.29
2023-02-14T07:07:34.523Z,19.27
2023-02-14T07:08:35.127Z,19.24
2023-02-14T07:09:35.720Z,19.26
2023-02-14T07:10:36.324Z,19.29
2023-02-14T07:11:37.023Z,19.26
2023-02-14T07:12:37.626Z,19.31
2023-02-14T07:13:38.229Z,19.30
2023-02-14T07:14:38.825Z,19.33
2023-02-14T07:15:39.453Z,19.33
2023-02-14T07:16:40.068Z,19.29
2023-02-14T07:17:40.730Z,19.29
2023-02-14T07:18:41.327Z,19.27
2023-02-14T07:19:41.935Z,19.22
2023-02-14T07:20:42.524Z,19.27
2023-02-14T07:21:43.129Z,19.33
2023-02-14T07:22:43.726Z,19.29
2023-02-14T07:23:44.314Z,19.26
2023-02-14T07:24:44.916Z,19.33
2023-02-14T07:25:45.522Z,19.30
2023-02-14T07:26:46.125Z,19.24
2023-02-14T07:27:46.725Z,19.26
2023-02-14T07:28:47.332Z,19.26
2023-02-14T07:29:47.947Z,19.29
2023-02-14T07:30:48.718Z,19.29
2023-02-14T07:31:49.440Z,19.19
2023-02-14T07:32:50.053Z,19.26
2023-02-14T07:33:50.648Z,19.30
2023-02-14T07:34:51.332Z,19.29
2023-02-14T07:35:51.945Z,19.22
2023-02-14T07:36:52.560Z,19.24
2023-02-14T07:37:53.199Z,19.27
2023-02-14T07:38:53.797Z,19.18
2023-02-14T07:39:55.246Z,19.22
2023-02-14T07:40:55.846Z,19.22
2023-02-14T07:41:56.445Z,19.21
2023-02-14T07:42:57.098Z,19.29
2023-02-14T07:43:57.770Z,19.27
2023-02-14T07:44:58.365Z,19.31
2023-02-14T07:45:59.002Z,19.27
2023-02-14T07:46:59.626Z,19.19
2023-02-14T07:48:00.407Z,19.24
2023-02-14T07:49:01.036Z,19.21
2023-02-14T07:50:01.628Z,19.21
2023-02-14T07:51:02.705Z,19.30
2023-02-14T07:52:03.528Z,19.21
2023-02-14T07:53:04.126Z,19.19
2023-02-14T07:54:04.722Z,19.21
2023-02-14T07:55:05.323Z,19.18
2023-02-14T07:56:05.930Z,19.22
2023-02-14T07:57:06.598Z,19.19
2023-02-14T07:58:07.189Z,19.22
2023-02-14T07:59:07.795Z,19.21
2023-02-14T08:00:08.386Z,19.19
2023-02-14T08:01:09.007Z,19.16
2023-02-14T08:02:09.589Z,19.21
2023-02-14T08:03:10.190Z,19.19
2023-02-14T08:04:10.792Z,19.21
2023-02-14T08:05:11.422Z,19.22
2023-02-14T08:06:12.068Z,19.21
2023-02-14T08:07:12.675Z,19.27
2023-02-14T08:08:13.269Z,19.26
2023-02-14T08:09:13.872Z,19.26
2023-02-14T08:10:14.475Z,19.26
2023-02-14T08:11:15.080Z,19.18
2023-02-14T08:12:15.754Z,19.24
2023-02-14T08:13:16.397Z,19.29
2023-02-14T08:14:17.000Z,19.22
2023-02-14T08:15:17.603Z,19.21
2023-02-14T08:16:18.273Z,19.22
2023-02-14T08:17:18.974Z,19.26
2023-02-14T08:18:19.705Z,19.19
2023-02-14T08:19:20.372Z,19.24
2023-02-14T08:20:20.969Z,19.19
2023-02-14T08:21:21.563Z,19.26
2023-02-14T08:22:22.163Z,19.22
2023-02-14T08:23:22.761Z,19.19
2023-02-14T08:24:23.357Z,19.24
2023-02-14T08:25:24.111Z,19.24
2023-02-14T08:26:24.713Z,19.24
2023-02-14T08:27:25.317Z,19.15
2023-02-14T08:28:26.021Z,19.21
2023-02-14T08:29:26.677Z,19.21
2023-02-14T08:30:27.375Z,19.15
2023-02-14T08:31:35.258Z,19.18
2023-02-14T08:32:29.742Z,19.22
2023-02-14T08:33:30.396Z,19.21
2023-02-14T08:34:31.067Z,19.19
2023-02-14T08:35:31.670Z,19.29
2023-02-14T08:36:32.320Z,19.16
2023-02-14T08:37:32.924Z,19.19
2023-02-14T08:38:33.509Z,19.16
2023-02-14T08:39:34.118Z,19.19
2023-02-14T08:40:34.702Z,19.21
2023-02-14T08:41:35.297Z,19.19
2023-02-14T08:42:36.692Z,19.24
2023-02-14T08:43:37.289Z,19.22
2023-02-14T08:44:37.885Z,19.22
2023-02-14T08:45:38.498Z,19.19
2023-02-14T08:46:39.160Z,19.19
2023-02-14T08:47:39.774Z,19.15
2023-02-14T08:48:40.377Z,19.29
2023-02-14T08:49:41.129Z,19.21
2023-02-14T08:50:41.728Z,19.19
2023-02-14T08:51:42.444Z,19.18
2023-02-14T08:52:43.091Z,19.21
2023-02-14T08:53:43.685Z,19.22
2023-02-14T08:54:44.352Z,19.18
2023-02-14T08:55:44.943Z,19.24
2023-02-14T08:56:45.571Z,19.24
2023-02-14T08:57:46.155Z,19.22
2023-02-14T08:58:46.994Z,19.22
2023-02-14T08:59:47.583Z,19.26
2023-02-14T09:00:48.226Z,19.22
2023-02-14T09:01:48.840Z,19.18
2023-02-14T09:02:49.460Z,19.19
2023-02-14T09:03:50.131Z,19.22
2023-02-14T09:04:50.751Z,19.21
2023-02-14T09:05:51.355Z,19.29
2023-02-14T09:06:51.958Z,19.16
2023-02-14T09:07:52.596Z,19.26
2023-02-14T09:08:53.242Z,19.21
2023-02-14T09:09:53.872Z,19.24
2023-02-14T09:10:54.468Z,19.24
2023-02-14T09:11:55.072Z,19.16
2023-02-14T09:12:55.667Z,19.26
2023-02-14T09:13:56.321Z,19.27
2023-02-14T09:14:56.916Z,19.24
2023-02-14T09:15:57.571Z,19.19
2023-02-14T09:16:58.256Z,19.19
2023-02-14T09:17:58.916Z,19.19
2023-02-14T09:18:59.617Z,19.22
2023-02-14T09:20:00.333Z,19.18
2023-02-14T09:21:02.104Z,19.18
2023-02-14T09:22:02.912Z,19.18
2023-02-14T09:23:03.622Z,19.19
2023-02-14T09:24:04.219Z,19.16
2023-02-14T09:25:04.816Z,19.21
2023-02-14T09:26:05.534Z,19.22
2023-02-14T09:27:06.198Z,19.29
2023-02-14T09:28:06.799Z,19.26
2023-02-14T09:29:07.454Z,19.21
2023-02-14T09:30:08.134Z,19.24
2023-02-14T09:31:08.963Z,19.19
2023-02-14T09:32:09.654Z,19.27
2023-02-14T09:33:10.290Z,19.24
2023-02-14T09:34:10.918Z,19.19
2023-02-14T09:35:11.505Z,19.22
2023-02-14T09:36:12.110Z,19.22
2023-02-14T09:37:12.706Z,19.31
2023-02-14T09:38:13.307Z,19.18
2023-02-14T09:39:14.706Z,19.22
2023-02-14T09:40:15.390Z,19.18
2023-02-14T09:41:16.055Z,19.18
2023-02-14T09:42:16.657Z,19.26
2023-02-14T09:43:17.353Z,19.19
2023-02-14T09:44:17.950Z,19.18
2023-02-14T09:45:18.555Z,19.22
2023-02-14T09:46:19.221Z,19.22
2023-02-14T09:47:19.810Z,19.26
2023-02-14T09:48:20.448Z,19.19
2023-02-14T09:49:21.127Z,19.21
2023-02-14T09:50:21.742Z,19.21
2023-02-14T09:51:22.343Z,19.24
2023-02-14T09:52:22.946Z,19.14
2023-02-14T09:53:23.553Z,19.24
2023-02-14T09:54:24.210Z,19.27
2023-02-14T09:55:24.865Z,19.27
2023-02-14T09:56:25.476Z,19.24
2023-02-14T09:57:26.216Z,19.27
2023-02-14T09:58:27.942Z,19.18
2023-02-14T09:59:28.415Z,19.18
2023-02-14T10:00:29.009Z,19.27
2023-02-14T10:01:29.751Z,19.30
2023-02-14T10:02:30.454Z,19.21
2023-02-14T10:03:31.076Z,19.26
2023-02-14T10:04:31.692Z,19.22
2023-02-14T10:05:32.273Z,19.29
2023-02-14T10:06:32.867Z,19.21
2023-02-14T10:07:33.483Z,19.22
2023-02-14T10:08:34.074Z,19.22
2023-02-14T10:09:34.678Z,19.24
2023-02-14T10:10:35.279Z,19.21
2023-02-14T10:11:35.882Z,19.30
2023-02-14T10:12:36.478Z,19.30
2023-02-14T10:13:37.087Z,19.31
2023-02-14T10:14:37.679Z,19.22
2023-02-14T10:15:38.278Z,19.29
2023-02-14T10:16:38.890Z,19.30
2023-02-14T10:17:39.526Z,19.31
2023-02-14T10:18:40.129Z,19.24
2023-02-14T10:19:40.731Z,19.21
2023-02-14T10:20:41.325Z,19.22
2023-02-14T10:21:41.928Z,19.31
2023-02-14T10:22:43.380Z,19.33
2023-02-14T10:23:44.042Z,19.30
2023-02-14T10:24:44.649Z,19.26
2023-02-14T10:25:45.245Z,19.34
2023-02-14T10:26:45.856Z,19.30
2023-02-14T10:27:46.455Z,19.26
2023-02-14T10:28:47.122Z,19.24
2023-02-14T10:29:47.807Z,19.22
2023-02-14T10:30:48.481Z,19.22
2023-02-14T10:31:49.125Z,19.33
2023-02-14T10:32:49.754Z,19.22
2023-02-14T10:33:50.369Z,19.26
2023-02-14T10:34:50.989Z,19.24
2023-02-14T10:35:51.645Z,19.31
2023-02-14T10:36:52.253Z,19.31
2023-02-14T10:37:52.853Z,19.26
2023-02-14T10:38:53.456Z,19.27
2023-02-14T10:39:54.071Z,19.27
2023-02-14T10:40:54.808Z,19.29
2023-02-14T10:41:55.454Z,19.30
2023-02-14T10:42:56.057Z,19.33
2023-02-14T10:43:56.667Z,19.26
2023-02-14T10:44:57.266Z,19.26
2023-02-14T10:45:57.926Z,19.33
2023-02-14T10:46:58.565Z,19.37
2023-02-14T10:47:59.199Z,19.39
2023-02-14T10:49:00.605Z,19.36
2023-02-14T10:50:01.192Z,19.40
2023-02-14T10:51:02.189Z,19.40
2023-02-14T10:52:02.459Z,19.44
2023-02-14T10:53:03.055Z,19.40
2023-02-14T10:54:03.726Z,19.44
2023-02-14T10:55:05.201Z,19.48
2023-02-14T10:56:05.815Z,19.41
2023-02-14T10:57:06.411Z,19.45
2023-02-14T10:58:07.043Z,19.45
2023-02-14T10:59:07.688Z,19.49
2023-02-14T11:00:08.293Z,19.47
2023-02-14T11:01:08.916Z,19.44
2023-02-14T11:02:09.670Z,19.48
2023-02-14T11:03:11.290Z,19.47
2023-02-14T11:04:11.900Z,19.44
2023-02-14T11:05:12.494Z,19.47
2023-02-14T11:06:13.100Z,19.48
2023-02-14T11:07:14.498Z,19.44
2023-02-14T11:08:15.155Z,19.47
2023-02-14T11:09:15.771Z,19.41
2023-02-14T11:10:16.385Z,19.44
2023-02-14T11:11:17.020Z,19.45
2023-02-14T11:12:17.623Z,19.40
2023-02-14T11:13:19.069Z,19.44
2023-02-14T11:15:20.274Z,19.47
2023-02-14T11:16:21.171Z,19.48
2023-02-14T11:17:21.774Z,19.45
2023-02-14T11:18:22.370Z,19.47
2023-02-14T11:19:22.975Z,19.47
2023-02-14T11:20:23.576Z,19.47
2023-02-14T11:21:24.184Z,19.48
2023-02-14T11:22:24.852Z,19.55
2023-02-14T11:23:25.472Z,19.41
2023-02-14T11:24:26.151Z,19.44
2023-02-14T11:25:27.723Z,19.47
2023-02-14T11:26:28.321Z,19.41
2023-02-14T11:27:28.920Z,19.48
2023-02-14T11:28:29.536Z,19.49
2023-02-14T11:29:30.129Z,19.51
2023-02-14T11:30:30.971Z,19.41
2023-02-14T11:31:31.698Z,19.44
2023-02-14T11:32:32.311Z,19.45
2023-02-14T11:33:32.979Z,19.47
2023-02-14T11:34:33.583Z,19.47
2023-02-14T11:35:34.182Z,19.47
2023-02-14T11:36:34.851Z,19.49
2023-02-14T11:37:35.461Z,19.47
2023-02-14T11:38:36.052Z,19.45
2023-02-14T11:39:36.711Z,19.39
2023-02-14T11:40:37.310Z,19.45
2023-02-14T11:41:37.912Z,19.40
2023-02-14T11:42:38.511Z,19.47
2023-02-14T11:43:39.118Z,19.45
2023-02-14T11:44:39.782Z,19.44
2023-02-14T11:45:40.385Z,19.44
2023-02-14T11:46:52.379Z,19.34
2023-02-14T11:47:42.574Z,19.39
2023-02-14T11:48:43.170Z,19.45
2023-02-14T11:49:43.766Z,19.37
2023-02-14T11:50:44.371Z,19.33
2023-02-14T11:51:45.789Z,19.36
2023-02-14T11:52:46.413Z,19.37
2023-02-14T11:53:47.018Z,19.34
2023-02-14T11:54:47.623Z,19.40
2023-02-14T11:55:48.219Z,19.40
2023-02-14T11:56:48.827Z,19.37
2023-02-14T11:57:49.421Z,19.37
2023-02-14T11:58:50.024Z,19.40
2023-02-14T11:59:50.631Z,19.39
2023-02-14T12:00:51.300Z,19.45
2023-02-14T12:01:51.980Z,19.39
2023-02-14T12:02:52.616Z,19.40
2023-02-14T12:03:53.300Z,19.34
2023-02-14T12:04:53.917Z,19.39
2023-02-14T12:05:54.512Z,19.39
2023-02-14T12:06:55.110Z,19.39
2023-02-14T12:07:55.860Z,19.33
2023-02-14T12:08:56.456Z,19.27
2023-02-14T12:09:58.745Z,19.41
2023-02-14T12:10:58.908Z,19.33
2023-02-14T12:11:59.641Z,19.36
2023-02-14T12:13:00.235Z,19.37
2023-02-14T12:14:00.828Z,19.36
2023-02-14T12:15:01.433Z,19.40
2023-02-14T12:16:02.135Z,19.39
2023-02-14T12:17:02.738Z,19.30
2023-02-14T12:18:03.473Z,19.40
2023-02-14T12:19:04.931Z,19.30
2023-02-14T12:20:05.579Z,19.34
2023-02-14T12:21:06.193Z,19.39
2023-02-14T12:22:06.850Z,19.27
2023-02-14T12:23:07.506Z,19.27
2023-02-14T12:24:08.116Z,19.30
2023-02-14T12:25:08.707Z,19.24
2023-02-14T12:26:09.300Z,19.31
2023-02-14T12:27:09.964Z,19.26
2023-02-14T12:28:10.558Z,19.31
2023-02-14T12:29:11.186Z,19.34
2023-02-14T12:30:11.874Z,19.26
2023-02-14T12:31:12.737Z,19.31
2023-02-14T12:32:13.512Z,19.39
2023-02-14T12:33:15.022Z,19.34
2023-02-14T12:34:15.626Z,19.33
2023-02-14T12:35:17.149Z,19.26
2023-02-14T12:36:18.557Z,19.31
2023-02-14T12:37:19.148Z,19.36
2023-02-14T12:38:19.743Z,19.31
2023-02-14T12:39:20.440Z,19.36
2023-02-14T12:40:21.045Z,19.26
2023-02-14T12:41:21.651Z,19.26
2023-02-14T12:42:22.241Z,19.26
2023-02-14T12:43:22.841Z,19.36
2023-02-14T12:44:23.443Z,19.24
2023-02-14T12:45:24.046Z,19.27
2023-02-14T12:46:24.778Z,19.36
2023-02-14T12:47:25.371Z,19.30
2023-02-14T12:48:25.979Z,19.30
2023-02-14T12:49:26.587Z,19.31
2023-02-14T12:50:27.181Z,19.27
2023-02-14T12:51:27.783Z,19.27
2023-02-14T12:52:28.381Z,19.26
2023-02-14T12:53:28.985Z,19.31
2023-02-14T12:54:29.588Z,19.30
2023-02-14T12:55:30.180Z,19.27
2023-02-14T12:56:30.776Z,19.29
2023-02-14T12:57:31.372Z,19.33
2023-02-14T12:58:31.975Z,19.31
2023-02-14T12:59:32.582Z,19.24
2023-02-14T13:00:33.178Z,19.30
2023-02-14T13:01:39.006Z,19.30
2023-02-14T13:02:35.472Z,19.27